logo tempoitalia

Diretta Meteo Lamezia Terme, Italiasabato 15 agosto ore 09:50

Mappa
Sereno 30 °C Sereno 24 Ore: T.min 21 T.max 36
Ponente Sud-Ovest Km/h 16.7 Punto di rugiada: 23 °C Umidità: 66% Visibilità: 10 Km
Il sole sorge alle: 06:07 Il sole tramonta alle: 19:51
15 Agosto 2020 09:50 tempo osservato: Sereno Sereno 30 66 1012 vento: Nord SO 16.7
15 Agosto 2020 09:20 tempo osservato: Sereno Sereno 29 70 1012 vento: Nord O/SO 18.5
15 Agosto 2020 08:50 tempo osservato: Sereno Sereno 29 70 1012 vento: Nord O/SO 18.5
15 Agosto 2020 08:20 tempo osservato: Sereno Sereno 29 70 1012 vento: Nord O/SO 22.2
15 Agosto 2020 07:50 tempo osservato: Sereno Sereno 29 66 1012 vento: Nord O/SO 14.8
15 Agosto 2020 07:20 tempo osservato: Sereno Sereno 29 62 1012 vento: Nord O 13
15 Agosto 2020 06:50 tempo osservato: Sereno Sereno 28 69 1011 vento: Nord SO 13
15 Agosto 2020 06:20 tempo osservato: Sereno Sereno 28 65 1011 vento: Nord O/SO 11.1
15 Agosto 2020 05:50 tempo osservato: Sereno Sereno 27 69 1011 vento: Nord O/SO 13
15 Agosto 2020 05:20 tempo osservato: Sereno Sereno 27 74 1011 vento: Nord O/SO 14.8
15 Agosto 2020 04:50 tempo osservato: Sereno Sereno 28 61 1011 vento: Nord O 18.5
15 Agosto 2020 04:20 tempo osservato: Sereno Sereno 28 58 1011 vento: Nord O 20.3
15 Agosto 2020 03:50 tempo osservato: Sereno Sereno 27 57 1011 vento: Nord O/SO 13
15 Agosto 2020 03:20 tempo osservato: Sereno Sereno 26 83 1012 vento: Nord SO 14.8
15 Agosto 2020 02:50 tempo osservato: Sereno Sereno 23 78 1012 vento: Nord S/SO 9.3
15 Agosto 2020 02:20 tempo osservato: Sereno Sereno 22 83 1012 vento: Nord N 3.7
15 Agosto 2020 01:50 tempo osservato: Sereno Sereno 21 88 1012 vento: Nord N 5.5
15 Agosto 2020 01:20 tempo osservato: Sereno Sereno 22 83 1012 vento: Nord N 3.7
15 Agosto 2020 00:50 tempo osservato: Sereno Sereno 22 88 1012 vento: Nord N 3.7
15 Agosto 2020 00:20 tempo osservato: Sereno Sereno 22 88 1012 vento: Nord E/SE 7.4
14 Agosto 2020 23:50 tempo osservato: Sereno Sereno 22 83 1012 vento: Nord N 5.5
14 Agosto 2020 23:20 tempo osservato: Sereno Sereno 23 73 1012 vento: Nord N 5.5
14 Agosto 2020 22:50 tempo osservato: Sereno Sereno 25 61 1013 vento: Nord N 3.7
14 Agosto 2020 22:20 tempo osservato: Sereno Sereno 25 57 1013 vento: Nord N 3.7
14 Agosto 2020 21:50 tempo osservato: Sereno Sereno 25 78 1013 vento: Nord S 7.4
14 Agosto 2020 21:20 tempo osservato: Sereno Sereno 26 78 1013 vento: Nord N 5.5
14 Agosto 2020 20:50 tempo osservato: Sereno Sereno 26 73 1012 vento: Nord N 5.5
14 Agosto 2020 20:20 tempo osservato: Sereno Sereno 27 69 1012 vento: Nord N 5.5
14 Agosto 2020 19:50 tempo osservato: Sereno Sereno 29 51 1012 vento: Nord SO 11.1
14 Agosto 2020 18:50 tempo osservato: Poco Nuvoloso Poco Nuvoloso 30 42 1012 vento: Nord S/SO 11.1
14 Agosto 2020 18:20 tempo osservato: Sereno Sereno 31 52 1012 vento: Nord S/SO 13
14 Agosto 2020 17:50 tempo osservato: Sereno Sereno 31 52 1012 vento: Nord S/SO 14.8
14 Agosto 2020 16:50 tempo osservato: Sereno Sereno 35 34 1012 vento: Nord O/SO 14.8
14 Agosto 2020 16:20 tempo osservato: Sereno Sereno 35 26 1012 vento: Nord O/SO 14.8
14 Agosto 2020 15:50 tempo osservato: Sereno Sereno 34 32 1012 vento: Nord O/SO 16.7
14 Agosto 2020 15:20 tempo osservato: Sereno Sereno 34 28 1012 vento: Nord O/SO 16.7
14 Agosto 2020 14:50 tempo osservato: Sereno Sereno 35 24 1013 vento: Nord O 18.5
14 Agosto 2020 14:20 tempo osservato: Sereno Sereno 35 21 1013 vento: Nord O 18.5
14 Agosto 2020 13:50 tempo osservato: Sereno Sereno 36 19 1013 vento: Nord O 9.3
14 Agosto 2020 13:20 tempo osservato: Sereno Sereno 35 21 1013 vento: Nord O 14.8
14 Agosto 2020 12:20 tempo osservato: Sereno Sereno 35 24 1013 vento: Nord N 9.3
14 Agosto 2020 11:50 tempo osservato: Sereno Sereno 34 26 1013 vento: Nord N 5.5
14 Agosto 2020 11:20 tempo osservato: Sereno Sereno 33 33 1014 vento: Nord N 3.7
14 Agosto 2020 10:50 tempo osservato: Sereno Sereno 32 31 1014 vento: Nord O 7.4